Latest Weather Observations for Mount Lofty

IDS60801

Issued at 10:31 am CST Sunday 26 April 2015 (issued every 30 minutes, with the page automatically refreshed every 10 minutes)

About weather observations | Map of weather stations | Latest weather observations for SA | Other Formats
Station Details ID: 023842 Name: MOUNT LOFTY Lat: -34.98 Lon: 138.71 Height: 685.0 m
Data from the previous 72 hours. | See also: Recent months at Mount Lofty
Date/Time
CST
Temp
°C
App
Temp
°C
Dew
Point
Rel
Hum
%
Delta-T
°C
Wind Press
QNH
hPa
Press
MSL
hPa
Rain
since 9 am
mm
Dir
 
Spd
km/h
Gust
km/h
Spd
kts
Gust
kts
26/10:30am 8.6 6.9 8.2 97 0.2 SW 7 13 4 7 - - 0.2
26/10:00am 9.6 8.3 9.3 98 0.2 SSW 6 17 3 9 - - 0.0
26/09:30am 8.5 6.9 8.2 98 0.1 SSE 6 17 3 9 - - 0.0
26/09:00am 7.8 5.9 7.5 98 0.1 SSE 7 17 4 9 - - 10.2
26/08:30am 7.7 5.8 7.6 99 0.0 S 7 13 4 7 - - 10.2
26/08:00am 7.3 5.3 7.0 98 0.1 S 7 20 4 11 - - 10.2
26/07:30am 7.2 5.3 6.9 98 0.1 SSE 6 13 3 7 - - 10.0
26/07:00am 7.1 4.7 6.8 98 0.1 S 9 20 5 11 - - 10.0
26/06:30am 7.1 5.0 6.8 98 0.1 S 7 19 4 10 - - 10.0
26/06:00am 7.1 4.7 6.8 98 0.1 SSE 9 17 5 9 - - 10.0
26/05:30am 7.2 4.4 6.9 98 0.1 S 11 20 6 11 - - 10.0
26/05:00am 7.2 4.4 6.9 98 0.1 S 11 20 6 11 - - 9.8
26/04:30am 7.0 4.9 6.7 98 0.1 S 7 17 4 9 - - 9.8
26/04:00am 7.0 4.9 6.7 98 0.1 S 7 15 4 8 - - 9.8
26/03:30am 6.8 4.3 6.5 98 0.1 S 9 17 5 9 - - 9.8
26/03:00am 6.8 4.7 6.5 98 0.1 S 7 13 4 7 - - 9.8
26/02:30am 6.9 4.8 6.6 98 0.1 S 7 17 4 9 - - 9.8
26/02:00am 6.8 4.6 6.4 97 0.2 S 7 17 4 9 - - 9.6
26/01:30am 6.7 5.0 6.0 95 0.3 S 4 7 2 4 - - 9.6
26/01:00am 7.0 4.7 5.9 93 0.5 SSE 7 17 4 9 - - 9.6
26/12:30am 6.7 4.5 6.1 96 0.3 S 7 15 4 8 - - 9.6
26/12:00am 6.9 5.0 6.6 98 0.1 SSW 6 11 3 6 - - 9.6
 
Date/Time
CST
Temp
°C
App
Temp
°C
Dew
Point
Rel
Hum
%
Delta-T
°C
Wind Press
QNH
hPa
Press
MSL
hPa
Rain
since 9 am
mm
Dir
 
Spd
km/h
Gust
km/h
Spd
kts
Gust
kts
25/11:30pm 7.4 5.0 7.1 98 0.1 SSW 9 19 5 10 - - 9.6
25/11:00pm 7.8 5.9 7.5 98 0.1 SSW 7 17 4 9 - - 9.6
25/10:30pm 7.9 5.6 7.6 98 0.1 S 9 20 5 11 - - 9.6
25/10:00pm 8.1 6.3 7.8 98 0.1 SSW 7 17 4 9 - - 9.6
25/09:30pm 7.9 5.3 7.6 98 0.1 S 11 26 6 14 - - 9.6
25/09:00pm 8.0 5.4 7.7 98 0.1 S 11 20 6 11 - - 9.6
25/08:30pm 8.1 5.1 7.8 98 0.1 S 13 32 7 17 - - 9.6
25/08:00pm 8.2 6.4 7.9 98 0.1 S 7 26 4 14 - - 9.4
25/07:30pm 8.3 6.1 8.0 98 0.1 S 9 24 5 13 - - 9.0
25/07:00pm 8.4 5.9 8.1 98 0.1 S 11 20 6 11 - - 8.8
25/06:30pm 8.6 6.1 8.3 98 0.2 SSE 11 22 6 12 - - 8.6
25/06:00pm 8.7 6.6 8.4 98 0.2 S 9 20 5 11 - - 8.4
25/05:30pm 8.8 6.0 8.5 98 0.2 S 13 30 7 16 - - 7.6
25/05:00pm 9.0 6.6 8.6 97 0.2 SSE 11 28 6 15 - - 7.6
25/04:30pm 9.4 7.1 8.9 97 0.3 SSE 11 22 6 12 - - 7.4
25/04:00pm 9.5 6.9 9.2 98 0.2 S 13 26 7 14 - - 7.4
25/03:30pm 9.7 6.7 9.4 98 0.2 SSE 15 37 8 20 - - 7.2
25/03:00pm 9.5 6.9 9.2 98 0.2 SSE 13 26 7 14 - - 7.2
25/02:30pm 9.7 8.3 9.4 98 0.2 SSW 7 19 4 10 - - 3.0
25/02:00pm 9.3 7.8 9.0 98 0.2 SW 7 17 4 9 - - 2.6
25/01:30pm 9.0 7.0 8.7 98 0.2 WSW 9 17 5 9 - - 2.4
25/01:00pm 8.8 6.7 8.2 96 0.3 WSW 9 19 5 10 - - 2.2
25/12:30pm 8.8 6.3 8.0 95 0.4 W 11 20 6 11 - - 2.0
25/12:00pm 8.8 6.9 7.7 93 0.5 WSW 7 20 4 11 - - 2.0
25/11:30am 9.4 7.9 9.1 98 0.2 WSW 7 13 4 7 - - 1.8
25/11:00am 8.6 6.7 7.7 94 0.4 W 7 15 4 8 - - 0.2
25/10:30am 8.6 7.0 8.0 96 0.3 SW 6 17 3 9 - - 0.2
25/10:00am 8.0 6.3 7.7 98 0.1 SW 6 13 3 7 - - 0.2
25/09:30am 7.3 5.3 7.0 98 0.1 SSW 7 15 4 8 - - 0.0
25/09:00am 7.8 5.9 7.7 99 0.0 S 7 20 4 11 - - 30.6
25/08:30am 7.1 5.1 7.0 99 0.0 SE 7 20 4 11 - - 30.6
25/08:00am 6.5 4.3 6.4 99 0.0 SSE 7 24 4 13 - - 30.6
25/07:30am 5.8 2.7 5.7 99 0.0 ESE 11 24 6 13 - - 30.6
25/07:00am 5.2 2.0 5.1 99 0.0 SE 11 24 6 13 - - 30.6
25/06:30am 5.1 1.5 5.0 99 0.0 SE 13 28 7 15 - - 30.6
25/06:00am 5.2 2.0 5.1 99 0.0 SE 11 28 6 15 - - 30.6
25/05:30am 4.9 0.9 4.8 99 0.0 SSE 15 44 8 24 - - 30.6
25/05:00am 5.4 2.2 5.3 99 0.0 SSE 11 24 6 13 - - 30.6
25/04:30am 5.2 2.0 5.1 99 0.0 SE 11 32 6 17 - - 30.6
25/04:00am 5.1 2.6 5.0 99 0.0 SE 7 19 4 10 - - 30.6
25/03:30am 5.3 2.9 5.2 99 0.0 SE 7 24 4 13 - - 30.6
25/03:00am 5.3 3.5 5.2 99 0.0 SE 4 11 2 6 - - 30.6
25/02:30am 5.8 3.7 5.7 99 0.0 SE 6 9 3 5 - - 30.6
25/02:00am 6.2 5.3 6.1 99 0.0 CALM 0 4 0 2 - - 30.6
25/01:30am 6.1 4.4 6.0 99 0.0 WNW 4 6 2 3 - - 30.2
25/01:00am 6.0 3.0 5.9 99 0.0 NW 11 22 6 12 - - 28.2
25/12:30am 6.0 1.5 5.9 99 0.0 NNW 19 33 10 18 - - 25.0
25/12:00am 5.5 0.9 5.4 99 0.0 NNW 19 33 10 18 - - 23.6
 
Date/Time
CST
Temp
°C
App
Temp
°C
Dew
Point
Rel
Hum
%
Delta-T
°C
Wind Press
QNH
hPa
Press
MSL
hPa
Rain
since 9 am
mm
Dir
 
Spd
km/h
Gust
km/h
Spd
kts
Gust
kts
24/11:30pm 5.6 0.4 5.5 99 0.0 NW 22 35 12 19 - - 23.2
24/11:00pm 5.5 0.6 5.2 98 0.1 NW 20 37 11 20 - - 22.4
24/10:30pm 6.0 0.8 5.7 98 0.1 NNW 22 41 12 22 - - 22.2
24/10:00pm 6.3 1.6 6.0 98 0.1 NW 20 39 11 21 - - 18.2
24/09:30pm 6.5 1.4 6.2 98 0.1 WNW 22 41 12 22 - - 17.6
24/09:00pm 6.3 0.8 6.0 98 0.1 NW 24 46 13 25 - - 16.8
24/08:30pm 5.7 -0.3 5.4 98 0.1 WNW 26 50 14 27 - - 15.8
24/08:24pm 5.9 -0.4 5.6 98 0.1 NW 28 54 15 29 - - 15.4
24/08:00pm 6.5 1.4 6.2 98 0.1 NW 22 32 12 17 - - 10.0
24/07:30pm 6.3 1.7 5.7 96 0.3 NW 19 35 10 19 - - 9.4
24/07:00pm 6.6 1.8 5.4 92 0.6 WNW 20 35 11 19 - - 9.4
24/06:30pm 6.6 1.8 5.7 94 0.4 WNW 20 35 11 19 - - 9.4
24/06:00pm 6.6 0.7 5.7 94 0.4 WNW 26 43 14 23 - - 9.4
24/05:30pm 7.4 3.0 4.9 84 1.1 WNW 17 33 9 18 - - 8.8
24/05:00pm 8.1 3.1 4.7 79 1.6 WNW 20 35 11 19 - - 8.8
24/04:30pm 8.1 3.3 5.7 85 1.1 W 20 44 11 24 - - 8.8
24/04:00pm 8.6 4.3 5.4 80 1.5 W 17 30 9 16 - - 8.8
24/03:30pm 8.0 4.7 6.3 89 0.8 W 13 30 7 16 - - 8.8
24/03:00pm 8.4 4.6 5.9 84 1.2 W 15 33 8 18 - - 8.8
24/02:30pm 8.6 5.1 7.2 91 0.7 W 15 26 8 14 - - 8.8
24/02:00pm 7.6 3.7 7.3 98 0.1 W 17 35 9 19 - - 8.8
24/01:30pm 7.3 3.8 7.2 99 0.0 W 15 30 8 16 - - 8.8
24/01:00pm 7.3 4.2 7.2 99 0.0 W 13 28 7 15 - - 8.6
24/12:30pm 7.5 4.4 7.4 99 0.0 W 13 26 7 14 - - 8.6
24/12:00pm 7.7 4.3 7.6 99 0.0 W 15 28 8 15 - - 8.2
24/11:30am 7.4 3.9 7.3 99 0.0 W 15 41 8 22 - - 7.0
24/11:00am 6.9 2.4 6.8 99 0.0 W 20 43 11 23 - - 4.8
24/10:30am 8.3 4.7 8.2 99 0.0 W 17 35 9 19 - - 3.8
24/10:00am 10.1 5.6 10.0 99 0.1 WNW 24 43 13 23 - - 0.4
24/09:30am 9.7 4.7 9.6 99 0.1 WNW 26 46 14 25 - - 0.4
24/09:03am 9.5 4.1 9.4 99 0.1 NW 28 50 15 27 - - 0.0
24/09:00am 9.5 4.5 9.4 99 0.1 NW 26 50 14 27 - - 3.4
24/08:30am 9.6 5.7 9.5 99 0.1 WNW 20 39 11 21 - - 3.2
24/08:00am 9.8 5.6 9.7 99 0.1 WNW 22 39 12 21 - - 1.0
24/07:30am 9.8 6.2 9.7 99 0.1 NW 19 32 10 17 - - 1.0
24/07:00am 9.9 6.7 9.8 99 0.1 NW 17 30 9 16 - - 1.0
24/06:30am 10.0 6.4 9.9 99 0.1 NW 19 33 10 18 - - 0.8
24/06:00am 9.9 7.4 9.8 99 0.1 WNW 13 24 7 13 - - 0.2
24/05:30am 9.7 6.8 9.6 99 0.1 WNW 15 24 8 13 - - 0.2
24/05:00am 9.8 6.9 9.7 99 0.1 WNW 15 24 8 13 - - 0.2
24/04:30am 9.8 7.7 9.7 99 0.1 WNW 11 20 6 11 - - 0.2
24/04:00am 10.0 7.1 9.7 98 0.2 WNW 15 26 8 14 - - 0.0
24/03:30am 10.3 8.6 10.0 98 0.2 W 9 24 5 13 - - 0.0
24/03:00am 10.4 8.0 10.1 98 0.2 WNW 13 28 7 15 - - 0.0
24/02:30am 10.3 8.3 10.0 98 0.2 W 11 20 6 11 - - 0.0
24/02:00am 10.3 8.6 10.0 98 0.2 W 9 19 5 10 - - 0.0
24/01:30am 10.3 7.9 10.0 98 0.2 WNW 13 20 7 11 - - 0.0
24/01:00am 10.3 9.0 10.0 98 0.2 W 7 19 4 10 - - 0.0
24/12:30am 10.3 9.0 10.0 98 0.2 WNW 7 13 4 7 - - 0.0
24/12:00am 10.3 9.0 10.0 98 0.2 WNW 7 15 4 8 - - 0.0
 
Date/Time
CST
Temp
°C
App
Temp
°C
Dew
Point
Rel
Hum
%
Delta-T
°C
Wind Press
QNH
hPa
Press
MSL
hPa
Rain
since 9 am
mm
Dir
 
Spd
km/h
Gust
km/h
Spd
kts
Gust
kts
23/11:30pm 10.3 9.2 10.0 98 0.2 WNW 6 11 3 6 - - 0.0
23/11:00pm 10.2 9.1 9.9 98 0.2 W 6 11 3 6 - - 0.0
23/10:30pm 10.2 9.1 9.9 98 0.2 W 6 11 3 6 - - 0.0
23/10:00pm 10.2 9.4 9.7 97 0.3 W 4 7 2 4 - - 0.0
23/09:30pm 10.1 9.3 9.6 97 0.3 W 4 4 2 2 - - 0.0
23/09:00pm 10.2 9.4 9.7 97 0.3 W 4 9 2 5 - - 0.0
23/08:30pm 10.0 9.1 9.4 96 0.3 W 4 9 2 5 - - 0.0
23/08:00pm 9.8 8.9 9.2 96 0.3 W 4 6 2 3 - - 0.0
23/07:30pm 10.0 9.2 9.5 97 0.3 W 4 6 2 3 - - 0.0
23/07:00pm 10.0 8.5 8.4 90 0.8 W 6 9 3 5 - - 0.0
23/06:30pm 10.1 9.0 8.4 89 0.9 W 4 7 2 4 - - 0.0
23/06:00pm 10.1 9.3 9.5 96 0.3 W 4 9 2 5 - - 0.0
23/05:30pm 10.9 9.9 10.3 96 0.3 W 6 11 3 6 - - 0.0
23/05:00pm 11.2 10.0 10.3 94 0.5 WNW 7 13 4 7 - - 0.0
23/04:30pm 11.7 10.5 10.3 91 0.7 WNW 7 13 4 7 - - 0.0
23/04:00pm 12.4 11.1 10.0 85 1.3 WNW 7 13 4 7 - - 0.0
23/03:30pm 12.7 11.5 9.5 81 1.7 WNW 6 13 3 7 - - 0.0
23/03:00pm 12.7 11.6 10.1 84 1.4 WNW 6 11 3 6 - - 0.0
23/02:30pm 12.5 11.5 10.2 86 1.2 WNW 6 9 3 5 - - 0.0
23/02:00pm 12.5 11.4 10.0 85 1.3 WNW 6 9 3 5 - - 0.0
23/01:30pm 12.5 11.5 10.4 87 1.1 WNW 6 9 3 5 - - 0.0
23/01:00pm 12.7 12.3 9.9 83 1.5 SE 2 6 1 3 - - 0.0
23/12:30pm 12.1 12.2 10.0 87 1.1 CALM 0 0 0 0 - - 0.0
23/12:00pm 12.1 10.9 9.5 84 1.4 W 6 9 3 5 - - 0.0
23/11:30am 12.5 11.5 9.0 79 1.8 NW 4 9 2 5 - - 0.0
23/11:00am 12.9 12.7 9.2 78 1.9 CALM 0 0 0 0 - - 0.0

Other Formats:

Comma delimited format used in spreadsheet applications
http://www.bom.gov.au/fwo/IDS60801/IDS60801.95678.axf

JavaScript Object Notation format (JSON) in row-major order
http://www.bom.gov.au/fwo/IDS60801/IDS60801.95678.json